createdAt,value
2022-12-04T06:11:39.489Z,37.03
2022-12-04T06:12:42.533Z,30.30
2022-12-04T06:17:42.206Z,31.98
2022-12-04T06:18:51.052Z,37.65
2022-12-04T06:19:59.607Z,39.47
2022-12-04T06:22:12.585Z,43.53
2022-12-04T06:23:20.950Z,40.22
2022-12-04T06:24:25.368Z,40.67
2022-12-04T06:25:56.380Z,39.33
2022-12-04T06:28:52.995Z,47.72
2022-12-04T06:30:52.720Z,44.83
2022-12-04T06:31:59.585Z,41.95
2022-12-04T06:33:08.102Z,42.70
2022-12-04T06:34:26.470Z,50.45
2022-12-04T06:35:29.080Z,55.15
2022-12-04T06:36:33.832Z,50.25
2022-12-04T06:37:36.614Z,50.65
2022-12-04T06:38:46.730Z,40.58
2022-12-04T06:39:49.494Z,44.13
2022-12-04T06:40:51.795Z,48.75
2022-12-04T06:41:56.460Z,44.47
2022-12-04T06:42:59.488Z,43.47
2022-12-04T06:44:01.777Z,39.90
2022-12-04T06:45:06.586Z,40.25
2022-12-04T06:46:13.987Z,38.05
2022-12-04T06:47:19.381Z,45.67
2022-12-04T06:48:22.098Z,50.30
2022-12-04T06:49:25.810Z,41.83
2022-12-04T06:50:30.807Z,43.00
2022-12-04T06:51:36.826Z,37.47
2022-12-04T06:52:45.397Z,42.58
2022-12-04T06:54:06.252Z,41.17
2022-12-04T06:55:14.157Z,40.33
2022-12-04T06:59:10.152Z,35.50
2022-12-04T07:01:14.107Z,35.22
2022-12-04T07:06:24.534Z,37.58
2022-12-04T07:25:10.029Z,31.60
2022-12-04T07:26:14.213Z,34.58
2022-12-04T07:27:16.921Z,31.63
2022-12-04T07:28:18.993Z,31.23
2022-12-04T07:29:21.246Z,31.48
2022-12-04T07:30:23.794Z,36.35
2022-12-04T07:31:29.945Z,33.92
2022-12-04T07:32:35.674Z,34.40
2022-12-04T07:33:38.860Z,30.02
2022-12-04T07:34:44.204Z,40.13
2022-12-04T07:35:54.691Z,37.75
2022-12-04T07:36:57.217Z,42.58
2022-12-04T07:38:01.001Z,33.60
2022-12-04T07:39:04.153Z,33.47
2022-12-04T07:40:08.406Z,38.55
2022-12-04T07:41:14.249Z,37.13
2022-12-04T07:42:24.300Z,31.60
2022-12-04T07:43:29.940Z,33.40
2022-12-04T07:44:33.288Z,31.10
2022-12-04T07:45:44.971Z,30.20
2022-12-04T07:47:02.522Z,31.60
2022-12-04T07:48:13.756Z,29.27
2022-12-04T07:49:32.878Z,31.42
2022-12-04T07:50:40.003Z,28.17
2022-12-04T07:51:44.158Z,33.13
2022-12-04T07:52:47.290Z,33.30
2022-12-04T07:53:51.588Z,28.75
2022-12-04T07:54:59.922Z,32.50
2022-12-04T07:56:07.702Z,29.43
2022-12-04T07:57:11.523Z,28.77
2022-12-04T07:58:15.172Z,25.40
2022-12-04T07:59:19.186Z,26.15
2022-12-04T08:00:22.874Z,25.85
2022-12-04T08:01:26.555Z,25.70
2022-12-04T08:02:29.980Z,24.13
2022-12-04T08:03:35.081Z,27.25
2022-12-04T08:04:38.688Z,24.00
2022-12-04T08:05:42.823Z,30.45
2022-12-04T08:07:14.188Z,25.73
2022-12-04T08:08:20.738Z,25.60
2022-12-04T08:09:25.082Z,26.02
2022-12-04T08:10:27.972Z,24.15
2022-12-04T08:11:32.278Z,25.08
2022-12-04T08:13:07.029Z,25.67
2022-12-04T08:14:12.293Z,23.77
2022-12-04T08:15:17.444Z,23.70
2022-12-04T08:16:22.138Z,26.38
2022-12-04T08:17:26.617Z,22.20
2022-12-04T08:18:29.397Z,23.02
2022-12-04T08:19:33.009Z,23.38
2022-12-04T08:20:35.421Z,26.77
2022-12-04T08:21:38.415Z,28.42
2022-12-04T08:22:42.196Z,31.15
2022-12-04T08:23:48.648Z,26.98
2022-12-04T08:24:53.183Z,24.92
2022-12-04T08:26:02.031Z,23.55
2022-12-04T08:27:09.656Z,23.65
2022-12-04T08:28:13.865Z,26.30
2022-12-04T08:29:18.174Z,26.45
2022-12-04T08:30:21.903Z,31.70
2022-12-04T08:31:30.358Z,28.00
2022-12-04T08:32:34.804Z,26.95
2022-12-04T08:33:44.072Z,28.90
2022-12-04T08:34:55.540Z,27.77
2022-12-04T08:36:00.069Z,28.98
2022-12-04T08:37:04.370Z,24.70
2022-12-04T08:38:09.313Z,27.70
2022-12-04T08:39:13.481Z,29.65
2022-12-04T08:40:18.182Z,24.60
2022-12-04T08:41:26.643Z,31.20
2022-12-04T08:47:03.944Z,27.73
2022-12-04T08:48:13.394Z,25.60
2022-12-04T08:49:19.922Z,27.98
2022-12-04T08:50:23.669Z,29.50
2022-12-04T08:51:36.187Z,25.90
2022-12-04T08:52:40.864Z,23.65
2022-12-04T08:56:08.022Z,22.77
2022-12-04T08:57:16.442Z,28.30
2022-12-04T08:58:23.150Z,27.17
2022-12-04T08:59:28.987Z,25.92
2022-12-04T09:00:34.938Z,26.63
2022-12-04T09:03:48.602Z,26.02
2022-12-04T09:06:38.646Z,23.00
2022-12-04T09:07:48.556Z,24.05
2022-12-04T09:09:03.808Z,25.00
2022-12-04T09:10:56.892Z,26.50
2022-12-04T09:12:03.734Z,24.27
2022-12-04T09:13:12.044Z,26.45
2022-12-04T09:14:26.401Z,24.92
2022-12-04T09:15:31.101Z,26.75
2022-12-04T09:16:35.367Z,26.17
2022-12-04T09:17:38.210Z,28.33
2022-12-04T09:18:41.200Z,24.52
2022-12-04T09:19:44.068Z,26.13
2022-12-04T09:20:46.631Z,23.70
2022-12-04T09:21:49.664Z,27.75
2022-12-04T09:23:04.104Z,27.90
2022-12-04T09:24:13.701Z,25.52
2022-12-04T09:25:19.652Z,23.15
2022-12-04T09:26:30.372Z,26.45
2022-12-04T09:27:37.791Z,26.08
2022-12-04T09:28:41.877Z,25.77
2022-12-04T09:29:45.046Z,24.45
2022-12-04T09:30:58.577Z,27.30
2022-12-04T09:32:04.955Z,30.45
2022-12-04T09:33:07.418Z,28.00
2022-12-04T09:34:11.106Z,25.67
2022-12-04T09:35:13.363Z,22.48
2022-12-04T09:36:20.450Z,29.77
2022-12-04T09:37:22.921Z,22.90
2022-12-04T09:38:30.136Z,28.35
2022-12-04T09:39:32.510Z,25.23
2022-12-04T09:40:46.410Z,24.67
2022-12-04T09:42:08.669Z,27.13
2022-12-04T09:43:19.925Z,28.35
2022-12-04T09:44:28.802Z,25.48
2022-12-04T09:45:40.722Z,24.30
2022-12-04T09:46:59.149Z,24.58
2022-12-04T09:48:02.875Z,25.58
2022-12-04T09:49:41.723Z,24.20
2022-12-04T09:50:47.015Z,25.58
2022-12-04T09:51:54.631Z,27.52
2022-12-04T09:53:02.626Z,27.00
2022-12-04T09:54:18.696Z,26.05
2022-12-04T09:55:29.288Z,32.30
2022-12-04T09:56:34.565Z,29.70
2022-12-04T09:57:46.764Z,29.30
2022-12-04T09:58:54.919Z,29.50
2022-12-04T09:59:58.321Z,26.63
2022-12-04T10:01:03.739Z,26.50
2022-12-04T10:02:23.626Z,26.45
2022-12-04T10:03:33.224Z,36.42
2022-12-04T10:07:25.547Z,33.50
2022-12-04T10:09:06.783Z,32.72
2022-12-04T10:10:36.965Z,34.00
2022-12-04T10:11:46.901Z,25.17
2022-12-04T10:13:01.891Z,30.25
2022-12-04T10:14:29.252Z,27.92
2022-12-04T10:16:18.035Z,28.23
2022-12-04T10:17:57.372Z,28.35
2022-12-04T10:19:20.943Z,34.42
2022-12-04T10:20:52.175Z,24.60
2022-12-04T10:22:37.339Z,24.40
2022-12-04T10:24:21.010Z,26.13
2022-12-04T10:25:27.984Z,25.00
2022-12-04T10:26:39.423Z,27.65
2022-12-04T10:28:07.580Z,24.08
2022-12-04T10:29:22.811Z,24.83
2022-12-04T10:32:24.116Z,28.23
2022-12-04T10:34:23.298Z,26.48
2022-12-04T10:35:44.571Z,28.52
2022-12-04T10:36:52.775Z,26.48
2022-12-04T10:38:05.878Z,24.13
2022-12-04T10:39:34.652Z,26.95
2022-12-04T10:40:51.906Z,26.15
2022-12-04T10:42:20.935Z,24.10
2022-12-04T10:43:38.571Z,25.38
2022-12-04T10:44:43.550Z,24.77
2022-12-04T10:45:56.617Z,22.48
2022-12-04T10:47:16.450Z,22.17
2022-12-04T10:48:34.687Z,22.20
2022-12-04T10:49:42.203Z,20.88
2022-12-04T10:50:51.451Z,23.63
2022-12-04T10:51:54.805Z,23.98
2022-12-04T10:52:57.266Z,21.70
2022-12-04T10:54:00.326Z,25.20
2022-12-04T10:55:03.693Z,24.85
2022-12-04T10:56:14.159Z,24.95
2022-12-04T10:57:17.163Z,24.35
2022-12-04T10:58:21.959Z,23.02
2022-12-04T10:59:26.393Z,23.30
2022-12-04T11:00:37.414Z,25.45
2022-12-04T11:01:41.121Z,21.42
2022-12-04T11:02:45.270Z,25.25
2022-12-04T11:04:00.053Z,25.23
2022-12-04T11:05:26.374Z,25.70
2022-12-04T11:06:29.839Z,27.05
2022-12-04T11:07:43.648Z,24.48
2022-12-04T11:08:51.107Z,31.17
2022-12-04T11:10:34.228Z,27.77
2022-12-04T11:11:36.433Z,22.83
2022-12-04T11:12:40.874Z,23.55
2022-12-04T11:13:45.233Z,26.52
2022-12-04T11:14:51.014Z,29.30
2022-12-04T11:15:57.829Z,31.85
2022-12-04T11:17:06.628Z,33.03
2022-12-04T11:18:31.499Z,31.08
2022-12-04T11:19:38.828Z,26.00
2022-12-04T11:20:49.596Z,26.90
2022-12-04T11:22:02.068Z,27.50
2022-12-04T11:23:05.403Z,22.20
2022-12-04T11:24:23.594Z,20.85
2022-12-04T11:25:35.760Z,23.42
2022-12-04T11:27:54.518Z,25.58
2022-12-04T11:29:01.662Z,25.77
2022-12-04T11:30:14.074Z,23.00
2022-12-04T11:31:21.572Z,22.70
2022-12-04T11:32:27.728Z,21.92
2022-12-04T11:33:40.350Z,19.75
2022-12-04T11:34:45.429Z,20.52
2022-12-04T11:36:03.296Z,21.83
2022-12-04T11:37:07.274Z,20.08
2022-12-04T11:38:17.420Z,19.63
2022-12-04T11:39:22.599Z,23.02
2022-12-04T11:40:29.425Z,20.77
2022-12-04T11:41:32.644Z,20.40
2022-12-04T11:42:34.739Z,19.48
2022-12-04T11:43:38.188Z,20.15
2022-12-04T11:44:49.157Z,20.63
2022-12-04T11:46:07.597Z,19.63
2022-12-04T11:47:18.353Z,18.80
2022-12-04T11:48:21.360Z,15.52
2022-12-04T11:49:26.138Z,15.75
2022-12-04T11:50:47.985Z,19.13
2022-12-04T11:52:29.879Z,16.27
2022-12-04T11:53:55.192Z,20.48
2022-12-04T11:55:04.905Z,20.50
2022-12-04T11:58:00.342Z,17.83
2022-12-04T11:59:40.856Z,17.70
2022-12-04T12:00:59.030Z,19.58
2022-12-04T12:02:35.409Z,18.60
2022-12-04T12:04:03.391Z,18.83
2022-12-04T12:05:42.865Z,16.67
2022-12-04T12:07:01.606Z,18.95
2022-12-04T12:08:19.559Z,20.00
2022-12-04T12:09:34.659Z,19.27
2022-12-04T12:10:48.317Z,19.05
2022-12-04T12:12:06.504Z,17.65
2022-12-04T12:13:28.298Z,19.63
2022-12-04T12:14:45.980Z,19.73
2022-12-04T12:16:30.538Z,17.10
2022-12-04T12:17:38.441Z,17.98
2022-12-04T12:19:22.766Z,15.77
2022-12-04T12:20:36.175Z,20.02
2022-12-04T12:21:57.469Z,16.90
2022-12-04T12:23:11.833Z,18.17
2022-12-04T12:24:25.278Z,17.10
2022-12-04T12:25:38.844Z,17.80
2022-12-04T12:27:05.157Z,19.48
2022-12-04T12:28:45.753Z,20.45
2022-12-04T12:30:10.436Z,17.50
2022-12-04T12:31:26.634Z,15.77
2022-12-04T12:32:48.126Z,21.35
2022-12-04T12:34:08.716Z,19.23
2022-12-04T12:35:46.061Z,16.48
2022-12-04T12:36:57.788Z,19.92
2022-12-04T12:38:22.753Z,20.10
2022-12-04T12:39:36.078Z,18.08
2022-12-04T12:40:46.172Z,15.05
2022-12-04T12:41:58.338Z,16.42
2022-12-04T12:43:08.572Z,16.88
2022-12-04T12:44:23.961Z,16.83
2022-12-04T12:45:52.616Z,17.45
2022-12-04T12:47:06.026Z,21.00
2022-12-04T12:48:31.520Z,16.60
2022-12-04T12:50:16.418Z,14.95
2022-12-04T12:51:50.209Z,18.85
2022-12-04T12:53:06.644Z,20.00
2022-12-04T12:54:19.495Z,16.60
2022-12-04T12:55:40.408Z,17.35
2022-12-04T12:56:49.860Z,18.13
2022-12-04T12:59:01.929Z,19.17
2022-12-04T13:01:18.670Z,18.40
2022-12-04T13:03:13.248Z,22.55
2022-12-04T13:04:44.957Z,16.30
2022-12-04T13:05:55.137Z,21.17
2022-12-04T13:07:24.102Z,20.30
2022-12-04T13:08:34.696Z,21.33
2022-12-04T13:09:43.010Z,20.02
2022-12-04T13:11:11.925Z,19.60
2022-12-04T13:12:16.956Z,17.73
2022-12-04T13:13:29.533Z,17.90
2022-12-04T13:14:43.540Z,15.43
2022-12-04T13:15:55.941Z,16.15
2022-12-04T13:17:04.765Z,14.82
2022-12-04T13:18:13.719Z,20.45
2022-12-04T13:19:26.060Z,14.88
2022-12-04T13:20:38.194Z,15.88
2022-12-04T13:21:59.893Z,19.50
2022-12-04T13:23:30.799Z,21.50
2022-12-04T13:24:39.052Z,16.73
2022-12-04T13:25:53.423Z,20.13
2022-12-04T13:27:10.485Z,15.38
2022-12-04T13:28:16.151Z,16.60
2022-12-04T13:29:47.176Z,17.77
2022-12-04T13:31:12.188Z,16.35
2022-12-04T13:32:37.882Z,20.77
2022-12-04T13:33:58.012Z,20.90
2022-12-04T13:35:28.014Z,16.80
2022-12-04T13:36:36.162Z,22.70
2022-12-04T13:37:54.274Z,15.35
2022-12-04T13:39:35.283Z,18.40
2022-12-04T13:40:41.110Z,19.77
2022-12-04T13:41:45.054Z,15.07
2022-12-04T13:42:58.867Z,17.35
2022-12-04T13:44:06.950Z,16.85
2022-12-04T13:45:27.979Z,19.08
2022-12-04T13:46:35.904Z,18.25
2022-12-04T13:47:38.909Z,19.63
2022-12-04T13:48:44.121Z,18.92
2022-12-04T13:49:47.727Z,25.30
2022-12-04T13:51:22.158Z,15.32
2022-12-04T13:52:41.207Z,18.23
2022-12-04T13:53:47.724Z,20.50
2022-12-04T13:55:00.077Z,18.63
2022-12-04T13:56:23.521Z,20.42
2022-12-04T13:57:28.714Z,17.83
2022-12-04T13:58:33.735Z,16.40
2022-12-04T13:59:39.078Z,19.15
2022-12-04T14:00:44.091Z,18.95
2022-12-04T14:01:52.617Z,20.98
2022-12-04T14:03:00.850Z,21.80
2022-12-04T14:04:05.665Z,18.98
2022-12-04T14:05:14.749Z,18.02
2022-12-04T14:06:25.051Z,17.23
2022-12-04T14:07:41.640Z,15.30
2022-12-04T14:08:45.216Z,17.13
2022-12-04T14:09:56.024Z,18.80
2022-12-04T14:11:18.325Z,14.85
2022-12-04T14:12:32.609Z,17.67
2022-12-04T14:14:01.084Z,17.75
2022-12-04T14:15:30.450Z,14.32
2022-12-04T14:16:47.485Z,15.93
2022-12-04T14:18:17.101Z,19.58
2022-12-04T14:19:32.607Z,17.77
2022-12-04T14:20:44.957Z,16.38
2022-12-04T14:21:50.504Z,18.23
2022-12-04T14:22:52.865Z,16.48
2022-12-04T14:23:55.285Z,22.30
2022-12-04T14:25:12.741Z,15.52
2022-12-04T14:26:29.246Z,17.50
2022-12-04T14:27:42.460Z,19.42
2022-12-04T14:28:45.469Z,17.52
2022-12-04T14:29:55.106Z,16.92
2022-12-04T14:31:09.113Z,22.15
2022-12-04T14:32:31.117Z,25.08
2022-12-04T14:33:38.442Z,21.77
2022-12-04T14:34:41.253Z,19.63
2022-12-04T14:36:05.730Z,20.65
2022-12-04T14:37:24.383Z,20.98
2022-12-04T14:38:26.655Z,19.35
2022-12-04T14:39:49.795Z,18.58
2022-12-04T14:40:58.354Z,23.30
2022-12-04T14:42:28.989Z,21.55
2022-12-04T14:43:55.442Z,23.17
2022-12-04T14:45:16.950Z,19.13
2022-12-04T14:46:47.959Z,45.95
2022-12-04T14:47:50.618Z,20.92
2022-12-04T14:49:31.045Z,19.52
2022-12-04T14:50:53.526Z,18.40
2022-12-04T14:52:14.154Z,22.35
2022-12-04T14:53:26.341Z,20.30
2022-12-04T15:02:36.404Z,14.88
2022-12-04T15:03:50.056Z,18.05
2022-12-04T15:04:59.315Z,20.00
2022-12-04T15:06:26.490Z,19.70
2022-12-04T15:25:58.821Z,22.48
2022-12-04T15:35:29.810Z,21.83
2022-12-04T15:36:49.958Z,26.70
2022-12-04T15:37:55.784Z,22.75
2022-12-04T15:39:07.593Z,22.95
2022-12-04T15:40:25.174Z,26.80
2022-12-04T15:41:36.157Z,18.88
2022-12-04T15:42:45.477Z,32.15
2022-12-04T15:43:50.074Z,27.45
2022-12-04T15:45:03.531Z,25.95
2022-12-04T15:46:43.696Z,26.92
2022-12-04T15:47:46.279Z,19.77
2022-12-04T15:48:51.990Z,23.83
2022-12-04T15:50:01.252Z,17.27
2022-12-04T15:51:08.297Z,21.48
2022-12-04T15:52:17.710Z,35.92
2022-12-04T15:53:28.839Z,20.08
2022-12-04T15:54:36.857Z,23.95
2022-12-04T15:55:47.493Z,21.75
2022-12-04T15:57:24.320Z,25.33
2022-12-04T15:58:36.356Z,24.33
2022-12-04T15:59:38.425Z,21.25
2022-12-04T16:00:43.107Z,24.30
2022-12-04T16:01:45.583Z,21.33
2022-12-04T16:02:48.941Z,24.90
2022-12-04T16:03:54.406Z,22.40
2022-12-04T16:04:56.722Z,22.00
2022-12-04T16:06:27.895Z,24.52
2022-12-04T16:07:34.656Z,21.63
2022-12-04T16:08:47.986Z,20.08
2022-12-04T16:09:59.537Z,20.15
2022-12-04T16:11:25.936Z,21.85
2022-12-04T16:12:31.263Z,24.88
2022-12-04T16:14:43.932Z,23.20
2022-12-04T16:15:48.036Z,20.63
2022-12-04T16:17:06.163Z,22.50
2022-12-04T16:18:19.966Z,27.55
2022-12-04T16:19:37.950Z,23.40
2022-12-04T16:20:49.985Z,25.55
2022-12-04T16:22:24.410Z,19.13
2022-12-04T16:23:32.098Z,19.40
2022-12-04T16:24:34.513Z,24.85
2022-12-04T16:25:38.517Z,21.45
2022-12-04T16:26:42.522Z,20.75
2022-12-04T16:27:45.069Z,28.02
2022-12-04T16:28:49.585Z,27.63
2022-12-04T16:29:54.315Z,20.27
2022-12-04T16:30:56.755Z,25.17
2022-12-04T16:32:03.039Z,26.40
2022-12-04T16:33:06.234Z,27.92
2022-12-04T16:34:12.434Z,28.13
2022-12-04T16:35:17.205Z,22.95
2022-12-04T16:36:23.984Z,21.67
2022-12-04T16:37:34.130Z,27.73
2022-12-04T16:38:36.895Z,25.10
2022-12-04T16:39:41.818Z,29.02
2022-12-04T16:40:51.614Z,54.15
2022-12-04T16:41:57.527Z,25.42
2022-12-04T16:43:07.160Z,22.48
2022-12-04T16:44:15.355Z,29.80
2022-12-04T16:45:41.559Z,24.75
2022-12-04T16:46:52.208Z,44.92
2022-12-04T16:47:54.486Z,27.10
2022-12-04T16:48:57.281Z,25.90
2022-12-04T16:50:01.008Z,28.52
2022-12-04T16:51:20.501Z,29.20
2022-12-04T16:52:25.543Z,30.75
2022-12-04T16:53:29.540Z,27.20
2022-12-04T16:54:51.679Z,28.08
2022-12-04T16:55:57.301Z,26.10
2022-12-04T16:57:11.838Z,23.08
2022-12-04T16:58:16.439Z,21.65
2022-12-04T16:59:28.674Z,23.45
2022-12-04T17:00:38.921Z,27.92
2022-12-04T17:01:47.321Z,24.23
2022-12-04T17:02:52.471Z,33.13
2022-12-04T17:03:54.640Z,34.45
2022-12-04T17:04:58.109Z,31.33
2022-12-04T17:06:01.142Z,34.92
2022-12-04T17:07:03.397Z,30.83
2022-12-04T17:08:05.798Z,25.35
2022-12-04T17:09:08.777Z,38.88
2022-12-04T17:10:13.410Z,36.33
2022-12-04T17:11:19.440Z,31.95
2022-12-04T17:12:23.831Z,31.73
2022-12-04T17:13:30.037Z,33.17
2022-12-04T17:14:33.065Z,26.80
2022-12-04T17:15:35.533Z,29.13
2022-12-04T17:16:45.145Z,35.45
2022-12-04T17:17:52.180Z,32.78
2022-12-04T17:18:55.491Z,47.40
2022-12-04T17:19:59.861Z,30.85
2022-12-04T17:21:12.517Z,31.27
2022-12-04T17:22:16.645Z,30.40
2022-12-04T17:23:21.330Z,24.30
2022-12-04T17:24:28.239Z,29.67
2022-12-04T17:25:33.745Z,32.40
2022-12-04T17:26:40.742Z,25.77
2022-12-04T17:27:44.575Z,28.65
2022-12-04T17:29:03.296Z,27.13
2022-12-04T17:30:22.519Z,20.30
2022-12-04T17:31:28.676Z,26.75
2022-12-04T17:32:31.838Z,26.95
2022-12-04T17:33:37.119Z,27.27
2022-12-04T17:34:43.314Z,24.60
2022-12-04T17:35:58.983Z,26.58
2022-12-04T17:37:22.354Z,26.08
2022-12-04T17:39:11.815Z,25.85
2022-12-04T17:40:15.112Z,22.02
2022-12-04T17:41:23.716Z,23.77
2022-12-04T17:42:40.177Z,28.60
2022-12-04T17:44:10.641Z,31.95
2022-12-04T17:47:09.306Z,29.15
2022-12-04T17:48:23.704Z,30.27
2022-12-04T17:49:29.181Z,28.77
2022-12-04T17:50:43.404Z,35.03
2022-12-04T17:51:52.663Z,28.48
2022-12-04T17:53:04.551Z,28.77
2022-12-04T17:54:12.276Z,26.42
2022-12-04T17:55:21.773Z,22.83
2022-12-04T17:56:48.837Z,24.80
2022-12-04T17:58:01.441Z,23.50
2022-12-04T17:59:08.377Z,22.85
2022-12-04T18:00:26.429Z,23.40
2022-12-04T18:01:31.866Z,26.73
2022-12-04T18:02:34.900Z,23.63
2022-12-04T18:03:41.682Z,28.50
2022-12-04T18:04:47.205Z,27.48
2022-12-04T18:05:52.050Z,21.88
2022-12-04T18:06:56.775Z,23.23
2022-12-04T18:07:59.345Z,25.80
2022-12-04T18:09:02.748Z,26.08
2022-12-04T18:10:09.183Z,29.48
2022-12-04T18:11:22.169Z,21.55
2022-12-04T18:12:39.819Z,29.33
2022-12-04T18:13:47.107Z,27.33
2022-12-04T18:15:05.815Z,27.85
2022-12-04T18:16:14.547Z,24.98
2022-12-04T18:17:36.908Z,28.00
2022-12-04T18:18:50.574Z,25.30
2022-12-04T18:20:02.659Z,28.45
2022-12-04T18:21:18.283Z,28.85
2022-12-04T18:22:31.919Z,26.17
2022-12-04T18:23:37.243Z,25.80
2022-12-04T18:24:52.327Z,24.98
2022-12-04T18:26:03.058Z,29.17
2022-12-04T18:27:14.619Z,23.45
2022-12-04T18:28:18.113Z,24.80
2022-12-04T18:29:28.416Z,24.90
2022-12-04T18:30:37.361Z,21.10
2022-12-04T18:32:06.178Z,23.13
2022-12-04T18:33:25.429Z,35.88
2022-12-04T18:34:52.431Z,24.15
2022-12-04T18:36:23.286Z,24.67
2022-12-04T18:37:32.279Z,25.73
2022-12-04T18:38:40.902Z,25.13
2022-12-04T18:40:05.982Z,22.20
2022-12-04T18:41:19.074Z,25.58
2022-12-04T18:42:28.751Z,26.02
2022-12-04T18:43:42.821Z,29.10
2022-12-04T18:44:52.679Z,25.95
2022-12-04T18:47:21.646Z,27.95
2022-12-04T18:48:34.206Z,21.30
2022-12-04T18:49:41.130Z,25.60
2022-12-04T18:50:44.366Z,21.90
2022-12-04T18:51:56.069Z,23.38
2022-12-04T18:53:01.669Z,26.25
2022-12-04T18:54:12.281Z,38.95
2022-12-04T18:55:20.507Z,24.88
2022-12-04T18:56:31.115Z,36.25
2022-12-04T18:57:45.965Z,23.83
2022-12-04T18:59:02.420Z,27.83
2022-12-04T19:00:11.862Z,22.58
2022-12-04T19:01:29.617Z,23.55
2022-12-04T19:02:42.437Z,26.85
2022-12-04T19:03:55.724Z,25.38
2022-12-04T19:05:01.662Z,20.55
2022-12-04T19:06:18.614Z,22.73
2022-12-04T19:08:43.401Z,24.80
2022-12-04T19:11:18.084Z,25.17
2022-12-04T19:12:31.150Z,29.30
2022-12-04T19:13:37.728Z,36.00
2022-12-04T19:14:44.071Z,29.67
2022-12-04T19:15:53.445Z,26.73
